createdAt,value
2022-09-11T00:00:55.959Z,989.12
2022-09-11T00:01:55.918Z,989.14
2022-09-11T00:02:55.873Z,989.14
2022-09-11T00:03:55.730Z,989.10
2022-09-11T00:04:55.650Z,989.13
2022-09-11T00:05:55.576Z,989.14
2022-09-11T00:06:55.499Z,989.11
2022-09-11T00:07:55.424Z,989.10
2022-09-11T00:08:55.344Z,989.09
2022-09-11T00:09:55.266Z,989.10
2022-09-11T00:10:55.189Z,989.09
2022-09-11T00:11:55.114Z,989.12
2022-09-11T00:12:55.057Z,989.11
2022-09-11T00:13:54.960Z,989.16
2022-09-11T00:14:54.882Z,989.17
2022-09-11T00:15:54.866Z,989.11
2022-09-11T00:16:54.730Z,989.11
2022-09-11T00:17:54.653Z,989.15
2022-09-11T00:18:54.578Z,989.14
2022-09-11T00:19:54.496Z,989.16
2022-09-11T00:20:54.423Z,989.17
2022-09-11T00:21:54.346Z,989.16
2022-09-11T00:22:54.274Z,989.15
2022-09-11T00:23:54.189Z,989.17
2022-09-11T00:24:54.116Z,989.19
2022-09-11T00:25:54.038Z,989.23
2022-09-11T00:26:53.962Z,989.22
2022-09-11T00:27:53.883Z,989.25
2022-09-11T00:28:53.827Z,989.20
2022-09-11T00:29:53.729Z,989.25
2022-09-11T00:30:53.654Z,989.20
2022-09-11T00:31:53.573Z,989.19
2022-09-11T00:32:53.499Z,989.20
2022-09-11T00:33:53.422Z,989.19
2022-09-11T00:34:53.344Z,989.21
2022-09-11T00:35:53.418Z,989.21
2022-09-11T00:36:53.191Z,989.22
2022-09-11T00:37:53.113Z,989.13
2022-09-11T00:38:53.036Z,989.20
2022-09-11T00:39:52.985Z,989.21
2022-09-11T00:40:53.283Z,989.19
2022-09-11T00:41:52.803Z,989.27
2022-09-11T00:42:52.732Z,989.18
2022-09-11T00:43:52.650Z,989.22
2022-09-11T00:44:52.598Z,989.23
2022-09-11T00:45:52.534Z,989.21
2022-09-11T00:46:52.430Z,989.24
2022-09-11T00:47:52.350Z,989.23
2022-09-11T00:48:52.266Z,989.30
2022-09-11T00:49:52.188Z,989.31
2022-09-11T00:50:52.112Z,989.29
2022-09-11T00:51:52.034Z,989.26
2022-09-11T00:52:53.214Z,989.26
2022-09-11T00:53:51.882Z,989.23
2022-09-11T00:54:51.804Z,989.30
2022-09-11T00:55:51.725Z,989.25
2022-09-11T00:56:51.661Z,989.30
2022-09-11T00:57:51.672Z,989.33
2022-09-11T00:58:51.495Z,989.30
2022-09-11T00:59:51.417Z,989.35
2022-09-11T01:00:51.401Z,989.36
2022-09-11T01:01:51.284Z,989.32
2022-09-11T01:02:51.192Z,989.34
2022-09-11T01:03:51.108Z,989.32
2022-09-11T01:04:51.031Z,989.33
2022-09-11T01:05:50.953Z,989.31
2022-09-11T01:06:50.877Z,989.34
2022-09-11T01:07:50.800Z,989.38
2022-09-11T01:08:50.726Z,989.35
2022-09-11T01:09:50.646Z,989.36
2022-09-11T01:10:50.569Z,989.36
2022-09-11T01:11:50.489Z,989.36
2022-09-11T01:12:50.414Z,989.39
2022-09-11T01:13:50.337Z,989.39
2022-09-11T01:14:50.262Z,989.36
2022-09-11T01:15:50.231Z,989.39
2022-09-11T01:16:50.127Z,989.44
2022-09-11T01:17:50.030Z,989.43
2022-09-11T01:18:49.952Z,989.44
2022-09-11T01:19:49.874Z,989.46
2022-09-11T01:20:49.803Z,989.41
2022-09-11T01:21:49.721Z,989.43
2022-09-11T01:22:49.645Z,989.44
2022-09-11T01:23:49.567Z,989.39
2022-09-11T01:24:49.490Z,989.45
2022-09-11T01:25:49.415Z,989.45
2022-09-11T01:26:49.336Z,989.46
2022-09-11T01:27:49.256Z,989.47
2022-09-11T01:28:49.181Z,989.45
2022-09-11T01:29:49.105Z,989.47
2022-09-11T01:30:49.031Z,989.48
2022-09-11T01:31:49.036Z,989.53
2022-09-11T01:32:48.894Z,989.54
2022-09-11T01:33:48.797Z,989.59
2022-09-11T01:34:48.721Z,989.52
2022-09-11T01:35:48.641Z,989.57
2022-09-11T01:36:48.566Z,989.51
2022-09-11T01:37:48.487Z,989.60
2022-09-11T01:38:48.411Z,989.64
2022-09-11T01:39:48.380Z,989.64
2022-09-11T01:40:48.256Z,989.64
2022-09-11T01:41:48.176Z,989.64
2022-09-11T01:42:48.103Z,989.63
2022-09-11T01:43:48.174Z,989.65
2022-09-11T01:44:47.948Z,989.63
2022-09-11T01:45:47.900Z,989.69
2022-09-11T01:46:47.798Z,989.63
2022-09-11T01:47:47.718Z,989.65
2022-09-11T01:48:47.662Z,989.65
2022-09-11T01:49:47.564Z,989.65
2022-09-11T01:50:47.497Z,989.69
2022-09-11T01:51:47.410Z,989.66
2022-09-11T01:52:47.329Z,989.69
2022-09-11T01:53:50.224Z,989.65
2022-09-11T01:54:47.178Z,989.69
2022-09-11T01:55:47.096Z,989.69
2022-09-11T01:56:47.022Z,989.63
2022-09-11T01:57:46.945Z,989.67
2022-09-11T01:58:46.871Z,989.69
2022-09-11T01:59:46.794Z,989.65
2022-09-11T02:00:46.732Z,989.67
2022-09-11T02:01:46.683Z,989.67
2022-09-11T02:02:46.561Z,989.68
2022-09-11T02:03:46.484Z,989.68
2022-09-11T02:04:46.424Z,989.70
2022-09-11T02:05:46.327Z,989.69
2022-09-11T02:06:46.255Z,989.72
2022-09-11T02:07:46.175Z,989.70
2022-09-11T02:08:46.099Z,989.75
2022-09-11T02:09:46.019Z,989.73
2022-09-11T02:19:51.434Z,989.74
2022-09-11T02:20:51.338Z,989.74
2022-09-11T02:21:51.259Z,989.74
2022-09-11T02:22:51.180Z,989.69
2022-09-11T02:23:51.106Z,989.69
2022-09-11T02:24:51.029Z,989.69
2022-09-11T02:25:50.954Z,989.67
2022-09-11T02:26:51.025Z,989.67
2022-09-11T02:27:50.799Z,989.68
2022-09-11T02:28:50.725Z,989.67
2022-09-11T02:36:50.372Z,989.79
2022-09-11T02:37:50.063Z,989.82
2022-09-11T03:00:48.603Z,990.02
2022-09-11T03:18:46.906Z,990.25
2022-09-11T03:19:46.811Z,990.27
2022-09-11T03:20:46.738Z,990.27
2022-09-11T03:21:47.202Z,990.31
2022-09-11T03:24:46.433Z,990.29
2022-09-11T03:25:46.353Z,990.26
2022-09-11T03:26:46.280Z,990.27
2022-09-11T03:27:46.206Z,990.26
2022-09-11T03:28:46.122Z,990.26
2022-09-11T03:29:46.049Z,990.25
2022-09-11T04:06:10.304Z,990.64
2022-09-11T04:07:10.199Z,990.65
2022-09-11T04:08:10.326Z,990.63
2022-09-11T04:09:10.045Z,990.63
2022-09-11T04:10:10.174Z,990.64
2022-09-11T04:13:09.740Z,990.66
2022-09-11T04:14:09.629Z,990.65
2022-09-11T04:15:12.818Z,990.67
2022-09-11T04:16:09.632Z,990.68
2022-09-11T04:49:07.146Z,990.94
2022-09-11T05:02:49.767Z,990.94
2022-09-11T05:04:48.312Z,991.02
2022-09-11T05:06:48.762Z,990.99
2022-09-11T05:08:48.003Z,990.98
2022-09-11T05:10:48.047Z,991.00
2022-09-11T05:11:49.697Z,991.08
2022-09-11T05:12:47.697Z,991.07
2022-09-11T05:14:48.012Z,991.16
2022-09-11T05:15:47.977Z,991.12
2022-09-11T05:20:47.283Z,991.20
2022-09-11T05:23:47.054Z,991.21
2022-09-11T05:26:49.207Z,991.24
2022-09-11T05:28:19.718Z,991.24
2022-09-11T05:29:19.647Z,991.23
2022-09-11T05:29:46.357Z,991.29
2022-09-11T05:30:46.279Z,991.25
2022-09-11T05:31:46.265Z,991.28
2022-09-11T05:32:46.127Z,991.25
2022-09-11T05:33:46.051Z,991.31
2022-09-11T05:34:45.975Z,991.35
2022-09-11T05:35:45.918Z,991.33
2022-09-11T05:36:45.827Z,991.37
2022-09-11T05:37:45.745Z,991.39
2022-09-11T05:38:45.668Z,991.40
2022-09-11T05:39:45.631Z,991.39
2022-09-11T05:40:45.517Z,991.41
2022-09-11T05:41:45.439Z,991.41
2022-09-11T05:42:45.364Z,991.40
2022-09-11T05:43:45.285Z,991.45
2022-09-11T05:44:45.211Z,991.45
2022-09-11T05:45:45.485Z,991.47
2022-09-11T05:46:45.206Z,991.49
2022-09-11T05:47:44.982Z,991.52
2022-09-11T05:48:44.950Z,991.55
2022-09-11T05:52:46.047Z,991.62
2022-09-11T05:54:44.690Z,991.61
2022-09-11T05:56:44.937Z,991.67
2022-09-11T05:58:44.687Z,991.66
2022-09-11T06:02:51.410Z,991.66
2022-09-11T06:04:51.608Z,991.68
2022-09-11T06:06:51.343Z,991.72
2022-09-11T06:11:50.760Z,991.71
2022-09-11T06:13:51.692Z,991.73
2022-09-11T06:17:50.301Z,991.77
2022-09-11T06:18:50.268Z,991.75
2022-09-11T06:19:50.151Z,991.76
2022-09-11T06:20:50.038Z,991.78
2022-09-11T06:21:49.998Z,991.77
2022-09-11T06:22:49.887Z,991.82
2022-09-11T06:23:49.849Z,991.81
2022-09-11T06:24:49.736Z,991.86
2022-09-11T06:25:49.695Z,991.85
2022-09-11T06:26:49.618Z,991.86
2022-09-11T06:27:50.050Z,991.89
2022-09-11T06:28:49.466Z,991.89
2022-09-11T06:29:49.757Z,991.88
2022-09-11T06:30:49.603Z,991.88
2022-09-11T06:32:49.165Z,991.91
2022-09-11T06:33:49.354Z,991.92
2022-09-11T06:34:49.010Z,991.91
2022-09-11T06:35:49.142Z,991.92
2022-09-11T06:36:52.083Z,991.94
2022-09-11T06:37:48.953Z,991.93
2022-09-11T06:38:49.421Z,991.95
2022-09-11T06:39:48.694Z,991.96
2022-09-11T06:40:48.559Z,991.97
2022-09-11T06:41:48.483Z,992.02
2022-09-11T06:43:48.733Z,992.03
2022-09-11T06:45:48.759Z,992.05
2022-09-11T06:51:50.318Z,992.12
2022-09-11T06:52:50.189Z,992.15
2022-09-11T06:53:50.317Z,992.16
2022-09-11T06:54:50.040Z,992.13
2022-09-11T06:55:49.985Z,992.13
2022-09-11T06:56:49.936Z,992.16
2022-09-11T06:57:49.815Z,992.10
2022-09-11T06:58:49.789Z,992.15
2022-09-11T06:59:49.866Z,992.16
2022-09-11T07:00:49.634Z,992.12
2022-09-11T07:01:49.655Z,992.13
2022-09-11T07:02:49.438Z,992.14
2022-09-11T07:03:49.363Z,992.11
2022-09-11T07:04:49.287Z,992.10
2022-09-11T07:05:49.213Z,992.11
2022-09-11T07:06:49.138Z,992.08
2022-09-11T07:07:49.064Z,992.05
2022-09-11T07:08:48.986Z,992.03
2022-09-11T07:09:48.914Z,992.05
2022-09-11T07:10:48.837Z,992.04
2022-09-11T07:11:48.785Z,992.03
2022-09-11T07:12:48.685Z,992.04
2022-09-11T07:13:48.613Z,992.05
2022-09-11T07:14:48.538Z,992.04
2022-09-11T07:15:48.463Z,992.05
2022-09-11T07:16:48.417Z,992.01
2022-09-11T07:17:48.314Z,992.05
2022-09-11T07:18:48.248Z,992.09
2022-09-11T07:19:48.163Z,992.08
2022-09-11T07:20:48.184Z,992.10
2022-09-11T07:21:48.011Z,992.10
2022-09-11T07:22:47.936Z,992.14
2022-09-11T07:23:47.861Z,992.15
2022-09-11T07:24:47.783Z,992.16
2022-09-11T07:25:47.711Z,992.16
2022-09-11T07:26:47.635Z,992.14
2022-09-11T07:27:47.579Z,992.19
2022-09-11T07:28:47.483Z,992.21
2022-09-11T07:29:47.408Z,992.19
2022-09-11T07:30:47.394Z,992.19
2022-09-11T07:31:47.260Z,992.27
2022-09-11T07:32:47.182Z,992.21
2022-09-11T07:33:47.109Z,992.26
2022-09-11T07:34:47.032Z,992.23
2022-09-11T07:35:46.959Z,992.23
2022-09-11T07:36:46.881Z,992.28
2022-09-11T07:37:50.745Z,992.30
2022-09-11T07:38:46.732Z,992.30
2022-09-11T07:39:46.781Z,992.31
2022-09-11T07:40:46.582Z,992.34
2022-09-11T07:41:46.507Z,992.35
2022-09-11T07:42:46.636Z,992.32
2022-09-11T07:43:46.383Z,992.37
2022-09-11T07:44:46.485Z,992.40
2022-09-11T07:45:46.237Z,992.38
2022-09-11T07:46:46.134Z,992.37
2022-09-11T07:47:46.061Z,992.39
2022-09-11T07:48:45.980Z,992.41
2022-09-11T07:49:45.909Z,992.38
2022-09-11T07:50:45.833Z,992.42
2022-09-11T07:51:45.760Z,992.48
2022-09-11T07:52:45.690Z,992.47
2022-09-11T07:53:45.606Z,992.47
2022-09-11T07:54:45.534Z,992.47
2022-09-11T07:55:45.461Z,992.48
2022-09-11T07:56:45.386Z,992.46
2022-09-11T07:57:45.312Z,992.47
2022-09-11T07:58:45.236Z,992.47
2022-09-11T07:59:45.188Z,992.46
2022-09-11T08:00:45.086Z,992.44
2022-09-11T08:01:45.069Z,992.46
2022-09-11T08:02:45.137Z,992.53
2022-09-11T08:03:44.964Z,992.47
2022-09-11T08:04:44.788Z,992.48
2022-09-11T08:05:44.713Z,992.49
2022-09-11T08:06:44.671Z,992.47
2022-09-11T08:07:44.565Z,992.46
2022-09-11T08:08:44.488Z,992.46
2022-09-11T08:09:44.467Z,992.47
2022-09-11T08:10:44.341Z,992.49
2022-09-11T08:11:44.268Z,992.51
2022-09-11T08:12:44.442Z,992.52
2022-09-11T08:13:44.353Z,992.51
2022-09-11T08:14:44.043Z,992.51
2022-09-11T08:15:43.987Z,992.50
2022-09-11T08:16:43.940Z,992.54
2022-09-11T08:17:43.822Z,992.49
2022-09-11T08:18:43.749Z,992.53
2022-09-11T08:19:43.675Z,992.52
2022-09-11T08:20:43.597Z,992.51
2022-09-11T08:21:43.525Z,992.50
2022-09-11T08:22:43.452Z,992.53
2022-09-11T08:23:43.506Z,992.52
2022-09-11T08:24:43.301Z,992.53
2022-09-11T08:25:43.231Z,992.50
2022-09-11T08:26:48.118Z,992.51
2022-09-11T08:27:43.081Z,992.53
2022-09-11T08:28:43.005Z,992.57
2022-09-11T08:29:43.945Z,992.57
2022-09-11T08:30:42.857Z,992.59
2022-09-11T08:31:42.807Z,992.57
2022-09-11T08:32:42.733Z,992.57
2022-09-11T08:33:42.846Z,992.54
2022-09-11T08:34:42.563Z,992.60
2022-09-11T08:35:42.487Z,992.60
2022-09-11T08:36:42.413Z,992.59
2022-09-11T08:37:42.437Z,992.63
2022-09-11T08:38:42.263Z,992.63
2022-09-11T08:39:42.217Z,992.69
2022-09-11T08:40:42.261Z,992.66
2022-09-11T08:41:42.043Z,992.70
2022-09-11T08:42:41.967Z,992.71
2022-09-11T08:43:42.008Z,992.69
2022-09-11T08:44:41.814Z,992.69
2022-09-11T08:45:41.765Z,992.74
2022-09-11T08:46:41.669Z,992.72
2022-09-11T08:47:41.614Z,992.74
2022-09-11T08:48:41.518Z,992.71
2022-09-11T08:49:41.459Z,992.75
2022-09-11T08:50:41.371Z,992.76
2022-09-11T08:51:41.293Z,992.76
2022-09-11T08:52:41.220Z,992.76
2022-09-11T08:53:41.202Z,992.78
2022-09-11T08:54:41.068Z,992.75
2022-09-11T08:55:40.995Z,992.80
2022-09-11T08:56:40.921Z,992.79
2022-09-11T08:57:40.846Z,992.80
2022-09-11T08:58:40.770Z,992.81
2022-09-11T08:59:40.699Z,992.83
2022-09-11T09:00:40.621Z,992.84
2022-09-11T09:01:40.565Z,992.82
2022-09-11T09:02:40.472Z,992.82
2022-09-11T09:03:40.471Z,992.86
2022-09-11T09:04:40.321Z,992.88
2022-09-11T09:05:40.250Z,992.86
2022-09-11T09:06:40.177Z,992.89
2022-09-11T09:07:40.101Z,992.90
2022-09-11T09:08:40.026Z,992.89
2022-09-11T09:09:39.950Z,992.88
2022-09-11T09:10:39.877Z,992.89
2022-09-11T09:11:39.801Z,992.94
2022-09-11T09:12:39.727Z,992.96
2022-09-11T09:13:39.730Z,992.90
2022-09-11T09:14:39.677Z,992.92
2022-09-11T09:15:39.531Z,992.90
2022-09-11T09:16:39.428Z,992.92
2022-09-11T09:17:39.354Z,992.89
2022-09-11T09:18:39.281Z,992.89
2022-09-11T09:19:39.224Z,992.89
2022-09-11T09:20:39.130Z,992.88
2022-09-11T09:21:39.060Z,992.92
2022-09-11T09:22:38.981Z,992.91
2022-09-11T09:23:38.911Z,992.91
2022-09-11T09:24:38.833Z,992.92
2022-09-11T09:25:38.761Z,992.91
2022-09-11T09:26:38.720Z,992.88
2022-09-11T09:27:38.614Z,992.88
2022-09-11T09:28:38.637Z,992.94
2022-09-11T09:29:38.465Z,992.94
2022-09-11T09:30:38.394Z,993.00
2022-09-11T09:31:38.316Z,992.96
2022-09-11T09:32:38.239Z,992.97
2022-09-11T09:33:38.167Z,992.94
2022-09-11T09:34:38.092Z,992.98
2022-09-11T09:35:38.039Z,992.98
2022-09-11T09:36:37.943Z,993.01
2022-09-11T09:37:37.872Z,992.97
2022-09-11T09:38:37.796Z,992.97
2022-09-11T09:39:37.785Z,992.97
2022-09-11T09:40:37.654Z,992.98
2022-09-11T09:41:37.613Z,993.00
2022-09-11T09:43:37.429Z,992.95
2022-09-11T09:44:37.352Z,992.96
2022-09-11T09:45:37.345Z,992.94
2022-09-11T09:46:37.208Z,992.94
2022-09-11T09:47:37.129Z,992.96
2022-09-11T09:48:37.056Z,992.93
2022-09-11T09:49:36.982Z,992.94
2022-09-11T09:50:36.913Z,992.99
2022-09-11T09:51:36.853Z,992.94
2022-09-11T09:52:36.762Z,992.96
2022-09-11T09:53:36.687Z,992.92
2022-09-11T09:54:36.694Z,992.97
2022-09-11T09:55:36.542Z,992.94
2022-09-11T09:56:36.467Z,992.95
2022-09-11T09:57:36.393Z,992.96
2022-09-11T09:58:36.505Z,992.95
2022-09-11T09:59:36.247Z,992.98
2022-09-11T10:00:36.174Z,992.96
2022-09-11T10:01:36.201Z,992.98
2022-09-11T10:02:36.059Z,992.96
2022-09-11T10:03:35.957Z,992.98
2022-09-11T10:04:35.884Z,992.97
2022-09-11T10:05:35.807Z,992.99
2022-09-11T10:06:35.733Z,992.97
2022-09-11T10:07:35.681Z,992.96
2022-09-11T10:08:38.271Z,992.96
2022-09-11T10:09:35.514Z,992.97
2022-09-11T10:10:35.439Z,993.01
2022-09-11T10:11:35.367Z,992.99
2022-09-11T10:12:35.494Z,992.97
2022-09-11T10:13:35.256Z,992.96
2022-09-11T10:14:51.190Z,992.97
2022-09-11T10:15:35.098Z,992.99
2022-09-11T10:16:34.998Z,992.96
2022-09-11T10:17:34.962Z,992.98
2022-09-11T10:18:34.855Z,992.96
2022-09-11T10:19:34.781Z,992.93
2022-09-11T10:20:34.742Z,992.93
2022-09-11T10:21:34.632Z,992.93
2022-09-11T10:22:34.762Z,992.89
2022-09-11T10:23:34.523Z,992.92
2022-09-11T10:24:34.410Z,992.88
2022-09-11T10:25:34.340Z,992.94
2022-09-11T10:26:34.517Z,992.93
2022-09-11T10:27:34.343Z,992.94
2022-09-11T10:28:34.196Z,992.93
2022-09-11T10:29:34.047Z,992.96
2022-09-11T10:30:34.080Z,992.96
2022-09-11T10:31:33.902Z,992.93
2022-09-11T10:32:33.827Z,992.92
2022-09-11T10:33:33.755Z,992.94
2022-09-11T10:34:33.680Z,992.94
2022-09-11T10:35:33.609Z,992.90
2022-09-11T10:36:33.535Z,992.90
2022-09-11T10:37:33.462Z,992.90
2022-09-11T10:38:36.924Z,992.84
2022-09-11T10:39:33.337Z,992.85
2022-09-11T10:40:33.247Z,992.82
2022-09-11T10:41:33.172Z,992.87
2022-09-11T10:42:33.350Z,992.84
2022-09-11T10:43:33.025Z,992.83
2022-09-11T10:44:32.953Z,992.86
2022-09-11T10:45:32.932Z,992.85
2022-09-11T10:46:39.128Z,992.87
2022-09-11T10:47:32.775Z,992.86
2022-09-11T10:48:32.660Z,992.88
2022-09-11T10:49:32.588Z,992.80
2022-09-11T10:50:32.515Z,992.86
2022-09-11T10:51:32.442Z,992.83
2022-09-11T10:52:32.368Z,992.86
2022-09-11T10:53:32.298Z,992.84
2022-09-11T10:54:32.222Z,992.84
2022-09-11T10:55:32.497Z,992.86
2022-09-11T10:56:32.078Z,992.87
2022-09-11T10:57:32.003Z,992.88
2022-09-11T10:59:31.860Z,992.85
2022-09-11T11:00:31.795Z,992.83
2022-09-11T11:01:31.768Z,992.84
2022-09-11T11:02:31.796Z,992.87
2022-09-11T11:03:31.567Z,992.91
2022-09-11T11:04:31.545Z,992.87
2022-09-11T11:05:31.428Z,992.90
2022-09-11T11:06:31.385Z,992.88
2022-09-11T11:07:31.365Z,992.91
2022-09-11T11:08:31.204Z,992.90
2022-09-11T11:09:31.417Z,992.90
2022-09-11T11:10:31.097Z,992.88
2022-09-11T11:11:31.107Z,992.84
2022-09-11T11:12:30.964Z,992.86
2022-09-11T11:13:31.204Z,992.81
2022-09-11T11:14:30.770Z,992.79
2022-09-11T11:15:30.736Z,992.83
2022-09-11T11:16:30.656Z,992.79
2022-09-11T11:17:30.554Z,992.79
2022-09-11T11:18:30.511Z,992.79
2022-09-11T11:19:30.443Z,992.78
2022-09-11T11:20:30.574Z,992.79
2022-09-11T11:21:30.264Z,992.80
2022-09-11T11:22:30.189Z,992.80
2022-09-11T11:23:30.119Z,992.81
2022-09-11T11:24:30.040Z,992.78
2022-09-11T11:25:30.227Z,992.83
2022-09-11T11:26:29.897Z,992.82
2022-09-11T11:27:29.993Z,992.86
2022-09-11T11:28:29.750Z,992.81
2022-09-11T11:29:29.679Z,992.84
2022-09-11T11:30:29.620Z,992.82
2022-09-11T11:31:29.554Z,992.82
2022-09-11T11:32:29.459Z,992.84
2022-09-11T11:33:29.387Z,992.86
2022-09-11T11:34:29.309Z,992.84
2022-09-11T11:35:29.243Z,992.81
2022-09-11T11:36:29.165Z,992.84
2022-09-11T11:37:29.093Z,992.81
2022-09-11T11:38:29.019Z,992.79
2022-09-11T11:39:28.998Z,992.81
2022-09-11T11:40:28.875Z,992.81
2022-09-11T11:41:28.803Z,992.86
2022-09-11T11:42:28.730Z,992.87
2022-09-11T11:43:28.677Z,992.87
2022-09-11T11:44:28.584Z,992.89
2022-09-11T11:45:28.512Z,992.91
2022-09-11T11:46:28.439Z,992.92
2022-09-11T11:47:28.376Z,992.95
2022-09-11T11:48:28.335Z,992.91
2022-09-11T11:49:28.223Z,992.90
2022-09-11T11:50:31.625Z,992.99
2022-09-11T11:51:28.085Z,993.06
2022-09-11T11:52:28.008Z,992.96
2022-09-11T11:53:28.632Z,993.12
2022-09-11T11:54:27.864Z,993.02
2022-09-11T11:55:27.830Z,993.20
2022-09-11T11:57:28.093Z,993.29
2022-09-11T11:58:27.823Z,993.13
2022-09-11T11:59:27.533Z,993.37
2022-09-11T12:00:27.441Z,993.25
2022-09-11T12:01:27.375Z,993.02
2022-09-11T12:02:27.306Z,993.01
2022-09-11T12:03:27.348Z,993.13
2022-09-11T12:04:27.165Z,993.02
2022-09-11T12:05:27.097Z,993.00
2022-09-11T12:06:27.036Z,993.11
2022-09-11T12:07:27.061Z,993.19
2022-09-11T12:08:29.509Z,992.98
2022-09-11T12:09:30.310Z,993.02
2022-09-11T12:10:26.775Z,992.96
2022-09-11T12:11:26.687Z,993.01
2022-09-11T12:12:26.614Z,993.01
2022-09-11T12:13:26.547Z,993.01
2022-09-11T12:14:26.477Z,992.98
2022-09-11T12:15:26.426Z,992.98
2022-09-11T12:16:26.363Z,992.96
2022-09-11T12:17:26.271Z,992.96
2022-09-11T12:18:26.201Z,993.00
2022-09-11T12:19:26.166Z,993.01
2022-09-11T12:20:26.093Z,992.99
2022-09-11T12:21:26.192Z,993.01
2022-09-11T12:22:26.359Z,993.06
2022-09-11T12:25:25.709Z,993.38
2022-09-11T12:26:25.675Z,993.14
2022-09-11T12:27:25.806Z,993.15
2022-09-11T12:28:25.529Z,993.47
2022-09-11T12:29:25.459Z,993.22
2022-09-11T12:31:25.590Z,993.12
2022-09-11T12:33:25.180Z,993.48
2022-09-11T12:34:25.110Z,993.54
2022-09-11T12:35:25.042Z,993.11
2022-09-11T12:39:25.166Z,993.09
2022-09-11T12:43:25.084Z,993.02
2022-09-11T12:44:24.407Z,993.09
2022-09-11T12:47:24.177Z,993.08
2022-09-11T12:48:24.087Z,993.08
2022-09-11T12:49:24.020Z,993.08
2022-09-11T12:50:23.949Z,993.04
2022-09-11T12:51:23.877Z,993.07
2022-09-11T12:52:23.805Z,993.07
2022-09-11T12:53:23.739Z,993.07
2022-09-11T12:54:23.663Z,993.01
2022-09-11T12:55:23.591Z,993.02
2022-09-11T12:56:23.552Z,993.03
2022-09-11T12:57:23.478Z,992.99
2022-09-11T12:58:23.715Z,992.97
2022-09-11T12:59:23.302Z,992.99
2022-09-11T13:01:23.761Z,993.00
2022-09-11T13:02:23.183Z,992.97
2022-09-11T13:03:23.240Z,992.95
2022-09-11T13:04:23.177Z,993.01
2022-09-11T13:05:23.261Z,992.95
2022-09-11T13:06:22.796Z,992.92
2022-09-11T13:07:22.757Z,992.89
2022-09-11T13:08:22.678Z,992.91
2022-09-11T13:09:22.615Z,992.89
2022-09-11T13:10:22.505Z,992.90
2022-09-11T13:11:23.077Z,992.88
2022-09-11T13:12:22.598Z,992.88
2022-09-11T13:13:22.523Z,992.87
2022-09-11T13:14:22.250Z,992.85
2022-09-11T13:15:22.177Z,992.82
2022-09-11T13:16:22.106Z,992.88
2022-09-11T13:17:22.234Z,992.87
2022-09-11T13:18:21.959Z,992.86
2022-09-11T13:19:21.884Z,992.85
2022-09-11T13:20:21.813Z,992.85
2022-09-11T13:21:25.826Z,992.83
2022-09-11T13:22:21.970Z,992.85
2022-09-11T13:23:21.800Z,992.85
2022-09-11T13:24:21.525Z,992.83
2022-09-11T13:25:21.466Z,992.82
2022-09-11T13:26:21.371Z,992.81
2022-09-11T13:28:25.449Z,992.79
2022-09-11T13:30:21.082Z,992.79
2022-09-11T13:31:21.104Z,992.75
2022-09-11T13:32:21.039Z,992.78
2022-09-11T13:33:21.134Z,992.77
2022-09-11T13:34:21.467Z,992.79
2022-09-11T13:35:20.904Z,992.80
2022-09-11T13:36:20.646Z,992.84
2022-09-11T13:37:20.576Z,992.86
2022-09-11T13:38:20.503Z,992.82
2022-09-11T13:39:20.432Z,992.81
2022-09-11T13:40:20.559Z,992.81
2022-09-11T13:41:20.291Z,992.87
2022-09-11T13:43:20.445Z,992.78
2022-09-11T13:44:20.070Z,992.76
2022-09-11T13:45:20.197Z,992.78
2022-09-11T13:46:19.890Z,992.78
2022-09-11T13:47:19.850Z,992.79
2022-09-11T13:48:19.745Z,992.73
2022-09-11T13:49:19.908Z,992.76
2022-09-11T13:50:19.837Z,992.69
2022-09-11T13:51:19.791Z,992.71
2022-09-11T13:52:19.494Z,992.78
2022-09-11T13:53:19.415Z,992.75
2022-09-11T13:54:19.348Z,992.90
2022-09-11T13:55:19.319Z,992.82
2022-09-11T13:56:19.208Z,992.84
2022-09-11T13:57:19.096Z,993.11
2022-09-11T14:04:11.025Z,993.09
2022-09-11T14:07:10.835Z,992.79
2022-09-11T14:08:10.747Z,992.73
2022-09-11T14:10:03.182Z,992.86
2022-09-11T14:11:03.111Z,992.82
2022-09-11T14:12:03.049Z,992.70
2022-09-11T14:13:02.976Z,992.80
2022-09-11T14:14:02.908Z,992.68
2022-09-11T14:15:03.074Z,992.64
2022-09-11T14:17:02.726Z,992.61
2022-09-11T14:19:03.380Z,992.65
2022-09-11T14:20:02.710Z,992.64
2022-09-11T14:21:02.440Z,992.69
2022-09-11T14:22:02.370Z,992.59
2022-09-11T14:23:02.322Z,992.58
2022-09-11T14:24:02.270Z,992.56
2022-09-11T14:25:02.170Z,992.53
2022-09-11T14:26:02.104Z,992.49
2022-09-11T14:27:02.047Z,992.44
2022-09-11T14:28:01.967Z,992.45
2022-09-11T14:29:01.900Z,992.49
2022-09-11T14:30:01.867Z,992.49
2022-09-11T14:31:01.794Z,992.54
2022-09-11T14:32:01.898Z,992.54
2022-09-11T14:33:01.631Z,992.50
2022-09-11T14:34:01.595Z,992.50
2022-09-11T14:35:01.501Z,992.55
2022-09-11T14:36:04.644Z,992.51
2022-09-11T14:37:01.359Z,992.46
2022-09-11T14:38:01.288Z,992.53
2022-09-11T14:39:01.244Z,992.55
2022-09-11T14:40:01.227Z,992.59
2022-09-11T14:41:01.089Z,992.60
2022-09-11T14:42:01.017Z,992.57
2022-09-11T14:43:00.954Z,992.61
2022-09-11T14:44:00.884Z,992.53
2022-09-11T14:45:00.823Z,992.52
2022-09-11T14:46:00.807Z,992.57
2022-09-11T14:47:00.685Z,992.53
2022-09-11T14:48:00.620Z,992.54
2022-09-11T14:50:00.526Z,992.51
2022-09-11T14:51:00.423Z,992.55
2022-09-11T14:52:00.362Z,992.52
2022-09-11T14:54:00.228Z,992.50
2022-09-11T15:06:01.276Z,992.28
2022-09-11T15:09:45.147Z,992.30
2022-09-11T15:10:11.926Z,992.27
2022-09-11T15:11:11.805Z,992.36
2022-09-11T15:12:11.742Z,992.35
2022-09-11T15:13:11.670Z,992.24
2022-09-11T15:14:20.736Z,992.28
2022-09-11T15:15:11.547Z,992.23
2022-09-11T15:16:11.493Z,992.15
2022-09-11T15:17:11.411Z,992.22
2022-09-11T15:18:11.580Z,992.26
2022-09-11T15:29:10.624Z,992.13
2022-09-11T15:30:10.541Z,992.10
2022-09-11T15:31:10.510Z,992.08
2022-09-11T15:32:10.448Z,992.13
2022-09-11T15:33:10.371Z,992.14
2022-09-11T15:34:10.306Z,992.18
2022-09-11T15:36:10.578Z,992.04
2022-09-11T15:37:10.512Z,992.04
2022-09-11T15:38:10.552Z,992.07
2022-09-11T15:39:10.626Z,992.02
2022-09-11T15:42:09.736Z,992.00
2022-09-11T15:43:09.874Z,992.02
2022-09-11T15:44:09.604Z,991.99
2022-09-11T15:45:09.888Z,991.97
2022-09-11T15:46:09.472Z,991.93
2022-09-11T15:47:09.443Z,991.94
2022-09-11T15:48:09.339Z,991.95
2022-09-11T15:49:09.509Z,991.93
2022-09-11T15:50:09.640Z,991.95
2022-09-11T15:57:08.736Z,992.01
2022-09-11T15:58:08.670Z,991.97
2022-09-11T15:59:08.603Z,992.00
2022-09-11T16:00:08.530Z,991.94
2022-09-11T16:01:08.744Z,991.97
2022-09-11T16:02:08.421Z,991.92
2022-09-11T16:03:08.326Z,991.94
2022-09-11T16:04:08.259Z,991.94
2022-09-11T16:05:08.192Z,991.96
2022-09-11T16:06:08.130Z,991.96
2022-09-11T16:07:08.057Z,991.93
2022-09-11T16:08:07.990Z,991.94
2022-09-11T16:09:07.923Z,991.95
2022-09-11T16:10:07.856Z,991.95
2022-09-11T16:11:07.787Z,991.89
2022-09-11T16:12:07.721Z,991.89
2022-09-11T16:13:07.656Z,991.86
2022-09-11T16:14:07.587Z,991.81
2022-09-11T16:15:07.517Z,991.90
2022-09-11T16:16:07.465Z,991.85
2022-09-11T16:17:07.402Z,991.89
2022-09-11T16:18:55.560Z,991.83
2022-09-11T16:19:54.741Z,991.85
2022-09-11T16:21:55.009Z,991.82
2022-09-11T16:22:54.536Z,991.78
2022-09-11T16:23:59.167Z,991.82
2022-09-11T16:24:54.399Z,991.84
2022-09-11T16:25:54.327Z,991.82
2022-09-11T16:26:54.260Z,991.79
2022-09-11T16:27:54.192Z,991.77
2022-09-11T16:28:54.120Z,991.79
2022-09-11T16:30:53.980Z,991.75
2022-09-11T16:31:53.913Z,991.76
2022-09-11T16:32:53.860Z,991.76
2022-09-11T16:33:53.871Z,991.77